createdAt,value
2023-04-07T00:01:37.124Z,19.52
2023-04-07T00:06:43.487Z,19.88
2023-04-07T00:11:48.745Z,18.52
2023-04-07T00:16:52.055Z,15.23
2023-04-07T00:21:56.650Z,15.57
2023-04-07T00:27:01.046Z,13.90
2023-04-07T00:32:04.983Z,14.93
2023-04-07T00:37:10.088Z,22.05
2023-04-07T00:42:13.427Z,15.53
2023-04-07T00:47:17.186Z,13.57
2023-04-07T00:52:27.410Z,15.65
2023-04-07T00:57:30.740Z,17.13
2023-04-07T01:02:40.099Z,12.85
2023-04-07T01:07:54.053Z,16.95
2023-04-07T01:13:04.432Z,12.65
2023-04-07T01:18:14.160Z,11.30
2023-04-07T01:23:26.667Z,13.40
2023-04-07T01:28:51.531Z,14.32
2023-04-07T01:33:58.627Z,12.15
2023-04-07T01:39:02.358Z,11.85
2023-04-07T01:44:08.032Z,14.80
2023-04-07T01:54:17.088Z,15.18
2023-04-07T01:59:20.951Z,15.18
2023-04-07T02:04:32.742Z,9.30
2023-04-07T02:09:41.612Z,14.20
2023-04-07T02:14:45.534Z,14.00
2023-04-07T02:19:54.996Z,17.83
2023-04-07T02:24:58.453Z,16.52
2023-04-07T02:30:03.680Z,13.65
2023-04-07T02:35:09.228Z,18.25
2023-04-07T02:40:13.163Z,14.82
2023-04-07T02:45:17.320Z,13.15
2023-04-07T02:50:22.482Z,11.02
2023-04-07T02:55:26.400Z,15.82
2023-04-07T03:00:30.222Z,17.08
2023-04-07T03:05:43.739Z,13.18
2023-04-07T03:10:48.991Z,13.93
2023-04-07T03:15:57.198Z,11.63
2023-04-07T03:21:03.922Z,12.20
2023-04-07T03:26:08.351Z,11.95
2023-04-07T03:31:14.570Z,15.73
2023-04-07T03:36:20.065Z,13.32
2023-04-07T03:41:24.571Z,16.35
2023-04-07T03:46:28.264Z,17.25
2023-04-07T03:51:33.316Z,21.30
2023-04-07T03:56:38.990Z,14.30
2023-04-07T04:01:42.994Z,13.88
2023-04-07T04:06:52.751Z,14.30
2023-04-07T04:12:26.103Z,14.43
2023-04-07T04:17:40.896Z,13.95
2023-04-07T04:22:46.916Z,19.13
2023-04-07T04:27:50.925Z,16.20
2023-04-07T04:32:58.432Z,13.80
2023-04-07T04:38:12.609Z,13.63
2023-04-07T04:43:22.897Z,13.38
2023-04-07T04:48:27.589Z,15.95
2023-04-07T04:53:32.951Z,14.95
2023-04-07T04:58:40.697Z,16.70
2023-04-07T05:03:46.304Z,14.23
2023-04-07T05:08:59.858Z,15.82
2023-04-07T05:14:09.329Z,19.92
2023-04-07T05:19:16.400Z,15.82
2023-04-07T05:24:22.025Z,22.42
2023-04-07T05:29:31.047Z,22.23
2023-04-07T05:34:34.866Z,20.65
2023-04-07T05:39:41.078Z,19.35
2023-04-07T05:44:47.986Z,22.98
2023-04-07T05:49:51.516Z,17.08
2023-04-07T05:54:57.608Z,23.20
2023-04-07T06:00:04.929Z,18.15
2023-04-07T06:05:17.502Z,17.42
2023-04-07T06:10:23.606Z,14.65
2023-04-07T06:15:27.375Z,18.58
2023-04-07T06:20:31.522Z,19.95
2023-04-07T06:25:36.867Z,14.18
2023-04-07T06:30:41.134Z,16.90
2023-04-07T06:35:47.718Z,18.98
2023-04-07T06:40:52.839Z,20.08
2023-04-07T06:45:56.565Z,16.92
2023-04-07T06:51:00.163Z,14.07
2023-04-07T06:56:10.025Z,14.00
2023-04-07T07:01:13.637Z,14.38
2023-04-07T07:06:16.988Z,18.88
2023-04-07T07:11:21.802Z,12.82
2023-04-07T07:16:25.145Z,22.23
2023-04-07T07:21:28.716Z,15.50
2023-04-07T07:26:33.700Z,12.50
2023-04-07T07:31:37.378Z,12.88
2023-04-07T07:36:41.016Z,12.73
2023-04-07T07:41:46.881Z,13.02
2023-04-07T07:46:50.139Z,16.35
2023-04-07T07:51:53.327Z,11.88
2023-04-07T07:56:57.871Z,12.90
2023-04-07T08:02:01.610Z,10.57
2023-04-07T08:07:05.486Z,12.32
2023-04-07T08:12:10.500Z,10.90
2023-04-07T08:17:14.225Z,9.30
2023-04-07T08:22:19.998Z,11.60
2023-04-07T08:27:25.075Z,12.20
2023-04-07T08:32:36.635Z,12.02
2023-04-07T08:37:41.507Z,15.93
2023-04-07T08:42:49.967Z,19.00
2023-04-07T08:47:58.095Z,12.88
2023-04-07T08:53:05.829Z,17.55
2023-04-07T08:58:13.681Z,13.30
2023-04-07T09:03:18.444Z,13.50
2023-04-07T09:08:22.038Z,14.90
2023-04-07T09:13:27.658Z,11.85
2023-04-07T09:23:36.607Z,15.15
2023-04-07T09:28:43.722Z,12.93
2023-04-07T09:33:47.707Z,16.48
2023-04-07T09:38:51.748Z,12.38
2023-04-07T09:43:59.605Z,14.75
2023-04-07T09:49:06.220Z,10.30
2023-04-07T09:54:11.011Z,11.43
2023-04-07T09:59:17.812Z,14.87
2023-04-07T10:04:22.847Z,11.00
2023-04-07T10:09:29.241Z,14.63
2023-04-07T10:14:34.392Z,11.57
2023-04-07T10:19:38.657Z,15.90
2023-04-07T10:24:52.216Z,8.35
2023-04-07T10:29:58.952Z,11.43
2023-04-07T10:35:02.585Z,14.10
2023-04-07T10:40:31.728Z,12.60
2023-04-07T10:45:56.701Z,10.43
2023-04-07T10:51:19.041Z,10.37
2023-04-07T10:56:22.543Z,14.30
2023-04-07T11:01:28.822Z,11.37
2023-04-07T11:06:32.430Z,9.23
2023-04-07T11:11:42.089Z,12.07
2023-04-07T11:16:46.795Z,10.13
2023-04-07T11:21:50.335Z,10.73
2023-04-07T11:26:53.941Z,11.98
2023-04-07T11:32:00.381Z,13.23
2023-04-07T11:37:21.974Z,13.73
2023-04-07T11:42:35.272Z,12.55
2023-04-07T11:47:42.223Z,12.57
2023-04-07T11:52:46.503Z,12.07
2023-04-07T11:57:51.991Z,11.90
2023-04-07T12:02:57.188Z,11.98
2023-04-07T12:08:01.200Z,11.15
2023-04-07T12:13:04.861Z,10.23
2023-04-07T12:18:09.986Z,9.25
2023-04-07T12:23:13.666Z,10.20
2023-04-07T12:28:17.208Z,14.20
2023-04-07T12:33:22.301Z,8.60
2023-04-07T12:38:26.061Z,13.07
2023-04-07T12:43:29.721Z,12.82
2023-04-07T12:48:34.807Z,10.15
2023-04-07T12:53:38.410Z,10.27
2023-04-07T12:58:41.650Z,8.77
2023-04-07T13:03:46.505Z,11.02
2023-04-07T13:08:49.833Z,11.38
2023-04-07T13:13:54.922Z,11.00
2023-04-07T13:19:02.384Z,11.07
2023-04-07T13:24:05.860Z,10.57
2023-04-07T13:29:09.129Z,12.93
2023-04-07T13:34:14.338Z,10.60
2023-04-07T13:39:17.656Z,10.48
2023-04-07T13:44:21.621Z,11.55
2023-04-07T13:49:26.616Z,13.07
2023-04-07T13:54:30.357Z,9.80
2023-04-07T13:59:33.957Z,12.93
2023-04-07T14:04:39.089Z,10.77
2023-04-07T14:09:43.093Z,10.60
2023-04-07T14:14:46.644Z,9.95
2023-04-07T14:19:51.804Z,8.88
2023-04-07T14:24:55.596Z,13.35
2023-04-07T14:29:59.692Z,9.18
2023-04-07T14:35:04.782Z,8.70
2023-04-07T14:40:09.954Z,10.55
2023-04-07T14:45:14.305Z,7.13
2023-04-07T14:50:19.645Z,7.70
2023-04-07T14:55:23.753Z,9.75
2023-04-07T15:00:29.110Z,11.88
2023-04-07T15:05:34.240Z,13.43
2023-04-07T15:10:39.782Z,7.55
2023-04-07T15:20:48.294Z,8.63
2023-04-07T15:25:56.328Z,7.95
2023-04-07T15:31:00.787Z,13.98
2023-04-07T15:36:06.003Z,11.05
2023-04-07T15:41:09.627Z,7.90
2023-04-07T15:46:13.257Z,8.23
2023-04-07T15:51:17.882Z,8.32
2023-04-07T15:56:23.435Z,7.10
2023-04-07T16:06:32.119Z,7.65
2023-04-07T16:11:35.960Z,8.85
2023-04-07T16:16:41.692Z,8.43
2023-04-07T16:21:46.789Z,8.23
2023-04-07T16:26:51.705Z,10.38
2023-04-07T16:31:55.475Z,7.63
2023-04-07T16:37:00.196Z,9.57
2023-04-07T16:42:04.391Z,10.63
2023-04-07T16:47:08.002Z,10.43
2023-04-07T16:52:13.122Z,7.90
2023-04-07T16:57:17.055Z,8.65
2023-04-07T17:02:20.538Z,9.32
2023-04-07T17:07:25.315Z,9.60
2023-04-07T17:12:28.977Z,10.10
2023-04-07T17:17:32.525Z,9.65
2023-04-07T17:22:37.537Z,7.70
2023-04-07T17:27:41.116Z,7.80
2023-04-07T17:32:44.324Z,11.15
2023-04-07T17:37:49.313Z,13.65
2023-04-07T17:42:53.807Z,7.17
2023-04-07T17:47:57.088Z,6.53
2023-04-07T17:53:02.006Z,12.07
2023-04-07T17:58:06.583Z,10.93
2023-04-07T18:03:11.159Z,10.48
2023-04-07T18:08:15.862Z,9.45
2023-04-07T18:13:19.188Z,9.38
2023-04-07T18:18:22.410Z,8.95
2023-04-07T18:23:27.098Z,8.05
2023-04-07T18:28:31.071Z,8.63
2023-04-07T18:33:35.052Z,5.25
2023-04-07T18:38:39.674Z,11.15
2023-04-07T18:43:42.984Z,11.20
2023-04-07T18:48:46.631Z,7.45
2023-04-07T18:53:51.417Z,8.07
2023-04-07T18:58:54.998Z,6.93
2023-04-07T19:03:59.200Z,7.85
2023-04-07T19:09:04.964Z,12.73
2023-04-07T19:19:12.053Z,9.52
2023-04-07T19:24:16.789Z,9.80
2023-04-07T19:29:20.393Z,9.37
2023-04-07T19:34:23.973Z,11.25
2023-04-07T19:39:29.236Z,14.77
2023-04-07T19:44:32.718Z,13.38
2023-04-07T19:49:36.369Z,14.88
2023-04-07T19:54:40.893Z,14.30
2023-04-07T19:59:44.186Z,12.93
2023-04-07T20:04:47.726Z,13.73
2023-04-07T20:09:54.034Z,13.68
2023-04-07T20:14:57.420Z,14.75
2023-04-07T20:20:01.444Z,12.25
2023-04-07T20:25:07.364Z,13.88
2023-04-07T20:30:11.133Z,12.27
2023-04-07T20:35:14.952Z,12.18
2023-04-07T20:40:19.983Z,11.38
2023-04-07T20:45:23.422Z,7.50
2023-04-07T20:50:27.045Z,8.43
2023-04-07T20:55:31.989Z,7.85
2023-04-07T21:00:35.303Z,9.27
2023-04-07T21:05:39.826Z,12.75
2023-04-07T21:10:44.446Z,10.45
2023-04-07T21:15:48.142Z,10.33
2023-04-07T21:20:51.456Z,16.02
2023-04-07T21:26:00.416Z,11.90
2023-04-07T21:31:04.461Z,9.73
2023-04-07T21:36:08.655Z,13.18
2023-04-07T21:41:13.730Z,9.25
2023-04-07T21:46:18.052Z,7.15
2023-04-07T21:51:21.579Z,9.82
2023-04-07T21:56:28.724Z,11.45
2023-04-07T22:01:32.497Z,9.07
2023-04-07T22:06:35.839Z,12.00
2023-04-07T22:11:40.896Z,7.88
2023-04-07T22:16:44.433Z,7.82
2023-04-07T22:21:47.649Z,6.85
2023-04-07T22:26:53.945Z,10.10
2023-04-07T22:31:57.634Z,6.43
2023-04-07T22:37:01.228Z,5.15
2023-04-07T22:42:06.403Z,9.13
2023-04-07T22:47:10.608Z,6.22
2023-04-07T22:52:14.279Z,7.97
2023-04-07T22:57:19.246Z,6.20
2023-04-07T23:02:22.959Z,8.53
2023-04-07T23:07:26.785Z,5.38
2023-04-07T23:12:32.006Z,8.98
2023-04-07T23:17:35.897Z,7.60
2023-04-07T23:22:39.456Z,9.50
2023-04-07T23:27:44.474Z,8.25
2023-04-07T23:32:48.239Z,6.22
2023-04-07T23:37:51.533Z,8.18
2023-04-07T23:42:56.427Z,10.57
2023-04-07T23:48:00.173Z,9.27
2023-04-07T23:53:04.450Z,8.52
2023-04-07T23:58:09.061Z,9.07
